Time;durP1;ratioP1;P1;durP2;ratioP2;P2;SDS_P1;SDS_P2;PMS_P1;PMS_P2;Temp;Humidity;BMP_temperature;BMP_pressure;BME280_temperature;BME280_humidity;BME280_pressure;Samples;Min_cycle;Max_cycle;Signal;HPM_P1;HPM_P2
2021/06/15 00:01:04;;;;;;;6.70;5.00;;;19.10;1.00;;;;;;5068848;28;20184;-67
2021/06/15 00:03:29;;;;;;;5.40;4.90;;;19.00;1.00;;;;;;5070532;28;20180;-69
2021/06/15 00:05:55;;;;;;;4.90;4.50;;;19.00;1.00;;;;;;5070475;28;20195;-69
2021/06/15 00:08:21;;;;;;;5.70;5.20;;;19.00;1.00;;;;;;5068799;28;20187;-69
2021/06/15 00:10:46;;;;;;;7.77;5.50;;;18.90;1.00;;;;;;5070105;28;20192;-68
2021/06/15 00:13:12;;;;;;;7.20;5.30;;;18.90;1.00;;;;;;5069740;28;20229;-68
2021/06/15 00:15:40;;;;;;;6.20;4.77;;;18.90;1.00;;;;;;5069968;28;20198;-68
2021/06/15 00:18:06;;;;;;;6.17;4.90;;;18.90;1.00;;;;;;5071876;28;20440;-68
2021/06/15 00:20:31;;;;;;;7.80;5.20;;;18.80;1.00;;;;;;5073811;28;20847;-68
2021/06/15 00:22:57;;;;;;;4.93;4.47;;;18.60;1.00;;;;;;5073713;28;20175;-68
2021/06/15 00:25:23;;;;;;;6.10;4.97;;;18.70;1.00;;;;;;5076984;28;20208;-68
2021/06/15 00:27:49;;;;;;;5.70;5.07;;;18.50;1.00;;;;;;5093983;28;20782;-67
2021/06/15 00:30:17;;;;;;;6.60;5.30;;;18.60;1.00;;;;;;5094293;28;20925;-67
2021/06/15 00:32:45;;;;;;;11.13;5.23;;;18.60;1.00;;;;;;5094388;28;20515;-68
2021/06/15 00:35:11;;;;;;;6.33;4.60;;;18.60;1.00;;;;;;5093870;28;20938;-68
2021/06/15 00:37:36;;;;;;;6.50;5.90;;;18.60;1.00;;;;;;5093730;28;20472;-68
2021/06/15 00:40:03;;;;;;;6.93;5.33;;;18.50;1.00;;;;;;5093857;28;20179;-68
2021/06/15 00:42:29;;;;;;;5.73;5.23;;;18.40;1.00;;;;;;5093854;28;20182;-68
2021/06/15 00:44:55;;;;;;;7.00;4.93;;;18.40;1.00;;;;;;5093570;28;20525;-67
2021/06/15 00:47:21;;;;;;;4.87;4.37;;;18.40;1.00;;;;;;5093753;28;20194;-68
2021/06/15 00:49:47;;;;;;;5.40;4.77;;;18.40;1.00;;;;;;5093785;28;20178;-69
2021/06/15 00:52:12;;;;;;;5.77;4.90;;;18.30;1.00;;;;;;5093302;28;20432;-68
2021/06/15 00:54:38;;;;;;;5.90;5.40;;;18.30;1.00;;;;;;5092191;28;20202;-67
2021/06/15 00:57:03;;;;;;;6.70;5.63;;;18.40;1.00;;;;;;5093476;28;20179;-68
2021/06/15 00:59:29;;;;;;;5.57;4.57;;;18.30;1.00;;;;;;5093547;28;20185;-68
2021/06/15 01:01:55;;;;;;;6.87;5.03;;;18.30;1.00;;;;;;5076532;28;20179;-67
2021/06/15 01:04:21;;;;;;;8.23;5.20;;;18.30;1.00;;;;;;5073282;28;20190;-68
2021/06/15 01:06:55;;;;;;;5.27;4.80;;;18.30;1.00;;;;;;5072981;28;20271;-68
2021/06/15 01:09:33;;;;;;;5.93;4.30;;;18.30;1.00;;;;;;5072953;28;20222;-68
2021/06/15 01:12:24;;;;;;;6.13;5.17;;;18.30;1.00;;;;;;5073167;28;20433;-68
2021/06/15 01:15:19;;;;;;;6.80;5.50;;;18.30;1.00;;;;;;5072934;28;20464;-68
2021/06/15 01:17:57;;;;;;;6.53;5.50;;;18.30;1.00;;;;;;5071307;28;20434;-68
2021/06/15 01:20:24;;;;;;;7.67;5.47;;;18.20;1.00;;;;;;5072564;28;20430;-68
2021/06/15 01:23:28;;;;;;;6.93;5.40;;;18.20;1.00;;;;;;5073196;28;20583;-67
2021/06/15 01:26:08;;;;;;;5.40;4.90;;;18.10;1.00;;;;;;5092917;28;20420;-68
2021/06/15 01:28:41;;;;;;;8.63;4.90;;;18.10;1.00;;;;;;5089557;28;20498;-68
2021/06/15 01:31:26;;;;;;;6.90;5.03;;;18.00;1.00;;;;;;5072447;28;20429;-68
2021/06/15 01:34:03;;;;;;;6.00;5.40;;;17.90;1.00;;;;;;5080798;28;20551;-67
2021/06/15 01:36:37;;;;;;;6.23;4.97;;;18.00;1.00;;;;;;5092605;28;20436;-67
2021/06/15 01:39:08;;;;;;;7.10;5.63;;;17.90;1.00;;;;;;5092583;28;20940;-66
2021/06/15 01:41:39;;;;;;;7.63;5.63;;;18.00;1.00;;;;;;5092703;28;20429;-67
2021/06/15 01:44:07;;;;;;;7.43;5.87;;;17.90;1.00;;;;;;5083328;28;20457;-67
2021/06/15 01:46:41;;;;;;;6.33;5.73;;;17.80;1.00;;;;;;5072224;28;20437;-67
2021/06/15 01:49:14;;;;;;;6.00;5.17;;;17.80;1.00;;;;;;5072279;28;20485;-67
2021/06/15 01:51:43;;;;;;;7.07;5.60;;;17.90;1.00;;;;;;5070966;28;20437;-67
2021/06/15 01:54:11;;;;;;;5.70;5.10;;;17.80;1.00;;;;;;5070853;28;20453;-67
2021/06/15 01:56:43;;;;;;;7.07;5.50;;;17.80;1.00;;;;;;5072023;28;20438;-67
2021/06/15 01:59:12;;;;;;;5.60;4.67;;;17.70;1.00;;;;;;5072031;28;20441;-67
2021/06/15 02:01:43;;;;;;;6.40;5.37;;;17.70;1.00;;;;;;5071698;28;20495;-67
2021/06/15 02:04:10;;;;;;;7.73;6.17;;;17.70;1.00;;;;;;5072360;28;20444;-66
2021/06/15 02:06:36;;;;;;;5.97;5.37;;;17.60;1.00;;;;;;5071930;28;20434;-66
2021/06/15 02:09:05;;;;;;;5.90;5.40;;;17.50;1.00;;;;;;5075421;28;20437;-67
2021/06/15 02:11:32;;;;;;;8.30;5.60;;;17.50;1.00;;;;;;5092131;28;20794;-67
2021/06/15 02:14:04;;;;;;;6.30;5.70;;;17.50;1.00;;;;;;5091919;28;20460;-67
2021/06/15 02:16:30;;;;;;;7.00;5.57;;;17.40;1.00;;;;;;5091731;28;20443;-69
2021/06/15 02:18:57;;;;;;;8.50;6.47;;;17.30;1.00;;;;;;5092051;28;20441;-66
2021/06/15 02:21:24;;;;;;;7.17;6.47;;;17.40;1.00;;;;;;5091769;28;20942;-65
2021/06/15 02:23:54;;;;;;;9.53;6.33;;;17.40;1.00;;;;;;5091733;28;20550;-67
2021/06/15 02:26:21;;;;;;;6.17;5.57;;;17.40;1.00;;;;;;5091853;28;20483;-67
2021/06/15 02:28:47;;;;;;;7.30;6.60;;;17.40;1.00;;;;;;5091603;28;20525;-67
2021/06/15 02:31:17;;;;;;;6.70;6.00;;;17.80;1.00;;;;;;5091971;28;20429;-67
2021/06/15 02:33:48;;;;;;;6.97;5.90;;;17.30;1.00;;;;;;5091974;28;20464;-67
2021/06/15 02:36:28;;;;;;;7.10;6.40;;;17.30;1.00;;;;;;5090093;28;20452;-67
2021/06/15 02:38:56;;;;;;;7.00;6.00;;;17.40;1.00;;;;;;5091529;28;20934;-67
2021/06/15 02:41:24;;;;;;;6.47;5.37;;;17.30;1.00;;;;;;5090812;28;20452;-67
2021/06/15 02:43:51;;;;;;;11.00;6.13;;;17.20;1.00;;;;;;5091386;28;20436;-66
2021/06/15 02:46:19;;;;;;;9.17;6.50;;;17.20;1.00;;;;;;5091443;28;20441;-67
2021/06/15 02:48:55;;;;;;;6.83;6.20;;;17.20;1.00;;;;;;5091522;28;20444;-67
2021/06/15 02:51:24;;;;;;;9.10;6.47;;;17.20;1.00;;;;;;5091411;28;20783;-67
2021/06/15 02:54:05;;;;;;;8.13;6.60;;;20.30;1.00;;;;;;5091412;28;20519;-67
2021/06/15 02:56:34;;;;;;;6.17;5.57;;;17.20;1.00;;;;;;5090105;28;20508;-67
2021/06/15 02:58:59;;;;;;;6.37;5.73;;;17.20;1.00;;;;;;5091633;28;20447;-67
2021/06/15 03:01:25;;;;;;;8.47;6.03;;;17.20;1.00;;;;;;5090932;28;20782;-67
2021/06/15 03:03:51;;;;;;;8.80;6.43;;;17.10;1.00;;;;;;5091301;28;20261;-67
2021/06/15 03:06:16;;;;;;;9.80;6.03;;;17.00;1.00;;;;;;5091184;28;20171;-67
2021/06/15 03:08:42;;;;;;;7.50;6.67;;;17.00;1.00;;;;;;5091134;28;20277;-68
2021/06/15 03:11:10;;;;;;;6.50;5.90;;;17.00;1.00;;;;;;5089526;28;20639;-66
2021/06/15 03:13:44;;;;;;;9.93;5.97;;;17.10;1.00;;;;;;5090947;28;20818;-67
2021/06/15 03:16:15;;;;;;;12.40;7.20;;;17.10;1.00;;;;;;5090916;28;20432;-67
2021/06/15 03:18:57;;;;;;;6.77;6.07;;;17.10;1.00;;;;;;5071447;28;20438;-67
2021/06/15 03:21:24;;;;;;;6.97;6.10;;;17.10;1.00;;;;;;5069059;28;20434;-67
2021/06/15 03:24:03;;;;;;;9.10;6.20;;;17.20;1.00;;;;;;5070740;28;20491;-67
2021/06/15 03:27:08;;;;;;;9.30;7.33;;;17.20;1.00;;;;;;5070566;28;20468;-67
2021/06/15 03:29:39;;;;;;;9.47;6.40;;;17.10;1.00;;;;;;5070680;28;20434;-67
2021/06/15 03:32:08;;;;;;;7.53;6.47;;;17.10;1.00;;;;;;5070399;28;20525;-67
2021/06/15 03:34:41;;;;;;;7.63;6.77;;;17.20;1.00;;;;;;5070431;28;20461;-67
2021/06/15 03:37:12;;;;;;;7.50;6.20;;;17.30;1.00;;;;;;5070215;28;20466;-66
2021/06/15 03:39:39;;;;;;;6.60;6.00;;;17.40;1.00;;;;;;5070502;28;20876;-67
2021/06/15 03:42:07;;;;;;;6.20;5.60;;;17.50;1.00;;;;;;5070518;28;20461;-67
2021/06/15 03:44:34;;;;;;;7.20;5.80;;;17.60;1.00;;;;;;5070421;28;20850;-69
2021/06/15 03:47:00;;;;;;;6.80;6.10;;;17.60;1.00;;;;;;5070544;28;20838;-69
2021/06/15 03:49:29;;;;;;;7.23;6.13;;;17.10;1.00;;;;;;5070141;28;20441;-69
2021/06/15 03:51:59;;;;;;;7.20;6.20;;;17.70;1.00;;;;;;5072038;28;20437;-69
2021/06/15 03:54:27;;;;;;;6.47;5.87;;;17.70;1.00;;;;;;5073142;28;20468;-69
2021/06/15 03:56:55;;;;;;;7.27;5.80;;;17.70;1.00;;;;;;5074708;28;20845;-68
2021/06/15 03:59:26;;;;;;;7.50;6.70;;;17.60;1.00;;;;;;5074340;28;20433;-68
2021/06/15 04:01:55;;;;;;;8.67;7.23;;;17.70;1.00;;;;;;5074135;28;20444;-68
2021/06/15 04:04:22;;;;;;;6.73;6.10;;;17.70;1.00;;;;;;5074172;28;20445;-68
2021/06/15 04:06:50;;;;;;;7.27;6.60;;;17.50;1.00;;;;;;5074255;28;20441;-67
2021/06/15 04:09:22;;;;;;;7.27;6.40;;;17.50;1.00;;;;;;5074053;28;20482;-67
2021/06/15 04:11:48;;;;;;;7.10;6.40;;;17.50;1.00;;;;;;5074243;28;20907;-67
2021/06/15 04:14:16;;;;;;;8.60;6.63;;;17.40;1.00;;;;;;5074166;28;20480;-67
2021/06/15 04:16:43;;;;;;;8.43;6.90;;;17.50;1.00;;;;;;5074094;28;20466;-67
2021/06/15 04:19:15;;;;;;;7.27;6.57;;;17.60;1.00;;;;;;5074097;28;20443;-67
2021/06/15 04:21:45;;;;;;;7.07;6.37;;;17.60;1.00;;;;;;5074180;28;20425;-67
2021/06/15 04:24:14;;;;;;;7.60;6.60;;;17.50;1.00;;;;;;5073791;28;20906;-67
2021/06/15 04:26:40;;;;;;;9.33;6.50;;;17.60;1.00;;;;;;5072390;28;20441;-67
2021/06/15 04:29:07;;;;;;;8.00;6.87;;;17.70;1.00;;;;;;5073328;28;20450;-67
2021/06/15 04:31:34;;;;;;;8.70;6.43;;;17.70;1.00;;;;;;5073527;28;20524;-67
2021/06/15 04:34:01;;;;;;;6.93;6.30;;;17.80;1.00;;;;;;5073740;28;20835;-67
2021/06/15 04:36:31;;;;;;;9.93;6.60;;;17.90;1.00;;;;;;5073430;28;20827;-67
2021/06/15 04:39:20;;;;;;;8.77;7.87;;;17.90;1.00;;;;;;5073732;28;20437;-67
2021/06/15 04:42:00;;;;;;;8.50;7.70;;;18.00;1.00;;;;;;5073444;28;20440;-67
2021/06/15 04:44:30;;;;;;;10.50;6.20;;;18.00;1.00;;;;;;5071823;28;20869;-66
2021/06/15 04:47:00;;;;;;;9.63;6.93;;;18.10;1.00;;;;;;5073606;28;20448;-67
2021/06/15 04:49:58;;;;;;;10.10;6.53;;;18.20;1.00;;;;;;5091483;28;20443;-67
2021/06/15 04:52:25;;;;;;;8.10;7.30;;;18.30;1.00;;;;;;5073676;28;20454;-67
2021/06/15 04:54:52;;;;;;;8.00;7.20;;;18.50;1.00;;;;;;5093353;28;20463;-67
2021/06/15 04:57:27;;;;;;;10.80;7.00;;;18.70;1.00;;;;;;5092199;28;20606;-67
2021/06/15 04:59:55;;;;;;;7.67;6.80;;;18.60;1.00;;;;;;5093925;28;20995;-67
2021/06/15 05:02:23;;;;;;;9.67;6.57;;;18.70;1.00;;;;;;5093292;28;20496;-67
2021/06/15 05:04:53;;;;;;;7.83;6.90;;;18.90;1.00;;;;;;5071808;28;20791;-67
2021/06/15 05:07:20;;;;;;;9.23;7.53;;;19.10;1.00;;;;;;5073135;28;20437;-67
2021/06/15 05:09:59;;;;;;;11.00;7.20;;;19.20;1.00;;;;;;5073017;28;20995;-67
2021/06/15 05:12:29;;;;;;;9.50;8.33;;;19.20;1.00;;;;;;5072937;28;20437;-68
2021/06/15 05:14:58;;;;;;;8.67;7.47;;;19.30;1.00;;;;;;5072700;28;20462;-68
2021/06/15 05:17:24;;;;;;;9.90;6.77;;;19.30;1.00;;;;;;5089295;28;20428;-67
2021/06/15 05:19:50;;;;;;;7.33;6.63;;;19.30;1.00;;;;;;5092535;28;20957;-67
2021/06/15 05:22:41;;;;;;;8.73;6.63;;;19.50;1.00;;;;;;5093186;28;20472;-67
2021/06/15 05:25:10;;;;;;;10.57;7.30;;;19.50;1.00;;;;;;5073183;28;20178;-67
2021/06/15 05:27:35;;;;;;;11.40;6.40;;;19.60;1.00;;;;;;5091749;28;20462;-68
2021/06/15 05:30:03;;;;;;;9.50;7.03;;;19.50;1.00;;;;;;5085402;28;20429;-68
2021/06/15 05:32:30;;;;;;;12.20;6.30;;;20.00;1.00;;;;;;5092852;28;20179;-68
2021/06/15 05:34:56;;;;;;;9.13;6.73;;;20.10;1.00;;;;;;5092630;28;20555;-68
2021/06/15 05:37:22;;;;;;;8.30;6.50;;;20.20;1.00;;;;;;5091522;28;20962;-68
2021/06/15 05:39:48;;;;;;;9.97;7.00;;;20.40;1.00;;;;;;5092360;28;20475;-68
2021/06/15 05:42:14;;;;;;;8.30;7.47;;;20.50;1.00;;;;;;5092940;28;20684;-67
2021/06/15 05:44:41;;;;;;;13.63;6.47;;;20.60;1.00;;;;;;5084925;28;20192;-68
2021/06/15 05:47:07;;;;;;;9.67;7.17;;;20.70;1.00;;;;;;5072032;28;20198;-65
2021/06/15 05:49:32;;;;;;;8.30;6.57;;;20.80;1.00;;;;;;5071063;28;20437;-66
2021/06/15 05:52:02;;;;;;;9.67;7.00;;;20.80;1.00;;;;;;5074558;28;20481;-67
2021/06/15 05:54:27;;;;;;;10.43;6.50;;;21.00;1.00;;;;;;5089344;28;20289;-67
2021/06/15 05:56:53;;;;;;;7.40;6.70;;;21.30;1.00;;;;;;5073684;28;20599;-67
2021/06/15 05:59:19;;;;;;;9.50;6.40;;;21.40;1.00;;;;;;5092180;28;20183;-66
2021/06/15 06:01:44;;;;;;;8.07;7.30;;;21.50;1.00;;;;;;5092109;28;20181;-68
2021/06/15 06:04:12;;;;;;;8.90;6.30;;;21.50;1.00;;;;;;5090601;28;20521;-66
2021/06/15 06:09:22;;;;;;;8.87;6.13;;;21.70;1.00;;;;;;5065390;28;20440;-67
2021/06/15 06:11:48;;;;;;;5.83;5.33;;;21.80;1.00;;;;;;5071742;28;20918;-68
2021/06/15 06:14:13;;;;;;;6.00;5.40;;;21.90;1.00;;;;;;5071413;28;20690;-66
2021/06/15 06:16:42;;;;;;;6.60;5.20;;;22.10;1.00;;;;;;5071561;28;20187;-67
2021/06/15 06:19:09;;;;;;;9.77;5.83;;;22.20;1.00;;;;;;5071182;28;20273;-66
2021/06/15 06:21:36;;;;;;;10.27;5.80;;;22.40;1.00;;;;;;5071521;28;20708;-68
2021/06/15 06:24:04;;;;;;;8.33;6.10;;;22.40;1.00;;;;;;5071339;28;20473;-66
2021/06/15 06:26:30;;;;;;;6.83;6.13;;;22.60;1.00;;;;;;5070129;28;20442;-67
2021/06/15 06:28:56;;;;;;;11.53;5.43;;;22.60;1.00;;;;;;5071060;28;20461;-66
2021/06/15 06:31:21;;;;;;;6.00;5.40;;;22.70;1.00;;;;;;5069946;28;20441;-67
2021/06/15 06:33:47;;;;;;;7.20;5.77;;;22.70;1.00;;;;;;5071386;28;20477;-64
2021/06/15 06:36:14;;;;;;;8.10;4.90;;;22.70;1.00;;;;;;5071339;28;20215;-66
2021/06/15 06:38:39;;;;;;;7.90;5.53;;;22.80;1.00;;;;;;5071025;28;20179;-65
2021/06/15 06:41:05;;;;;;;9.83;5.47;;;22.80;1.00;;;;;;5070714;28;20506;-64
2021/06/15 06:43:31;;;;;;;5.67;5.00;;;22.90;1.00;;;;;;5071254;28;20191;-66
2021/06/15 06:45:57;;;;;;;19.87;6.97;;;23.00;1.00;;;;;;5071035;28;20191;-66
2021/06/15 06:48:22;;;;;;;9.60;5.40;;;23.00;1.00;;;;;;5074280;28;20437;-66
2021/06/15 06:50:48;;;;;;;9.67;5.60;;;23.10;1.00;;;;;;5075809;28;20194;-66
2021/06/15 06:53:14;;;;;;;7.40;4.90;;;23.30;1.00;;;;;;5070085;28;20283;-65
2021/06/15 06:55:40;;;;;;;6.70;5.17;;;23.40;1.00;;;;;;5070673;28;20175;-65
2021/06/15 06:58:06;;;;;;;5.93;5.40;;;23.40;1.00;;;;;;5070725;28;20258;-66
2021/06/15 07:00:32;;;;;;;6.50;4.73;;;23.60;1.00;;;;;;5070668;28;20218;-66
2021/06/15 07:02:58;;;;;;;5.57;5.00;;;23.90;1.00;;;;;;5070807;28;20438;-66
2021/06/15 07:05:24;;;;;;;7.70;5.37;;;23.90;1.00;;;;;;5069193;28;20445;-68
2021/06/15 07:07:51;;;;;;;6.23;4.40;;;24.00;1.00;;;;;;5069369;28;20202;-66
2021/06/15 07:10:18;;;;;;;9.70;5.23;;;24.10;1.00;;;;;;5069006;28;20987;-66
2021/06/15 07:12:43;;;;;;;10.33;5.50;;;24.30;1.00;;;;;;5069173;28;20947;-67
2021/06/15 07:15:10;;;;;;;8.80;5.67;;;24.30;1.00;;;;;;5070821;28;20472;-68
2021/06/15 07:17:35;;;;;;;6.93;5.03;;;24.50;1.00;;;;;;5070237;28;20669;-66
2021/06/15 07:20:01;;;;;;;8.90;6.00;;;24.60;1.00;;;;;;5070252;28;20579;-66
2021/06/15 07:22:26;;;;;;;7.73;5.47;;;24.90;1.00;;;;;;5070404;28;20184;-65
2021/06/15 07:24:52;;;;;;;8.17;5.80;;;25.20;1.00;;;;;;5070616;28;20402;-67
2021/06/15 07:27:17;;;;;;;9.47;5.60;;;25.10;1.00;;;;;;5069848;28;20187;-65
2021/06/15 07:29:43;;;;;;;6.30;5.00;;;25.20;1.00;;;;;;5070197;28;20191;-68
2021/06/15 07:32:09;;;;;;;6.50;4.73;;;25.00;1.00;;;;;;5069280;28;20215;-67
2021/06/15 07:34:34;;;;;;;5.07;4.57;;;25.30;1.00;;;;;;5070067;28;20225;-67
2021/06/15 07:37:00;;;;;;;6.87;5.03;;;25.60;1.00;;;;;;5070557;28;20190;-66
2021/06/15 07:39:25;;;;;;;7.50;5.30;;;25.80;1.00;;;;;;5070350;28;20183;-66
2021/06/15 07:41:51;;;;;;;5.50;4.60;;;25.90;1.00;;;;;;5083538;28;20190;-67
2021/06/15 07:44:17;;;;;;;5.30;4.80;;;26.20;1.00;;;;;;5090678;28;20178;-68
2021/06/15 07:46:43;;;;;;;6.70;4.33;;;26.50;1.00;;;;;;5090282;28;20186;-67
2021/06/15 07:49:09;;;;;;;8.40;5.20;;;26.30;1.00;;;;;;5090641;28;20186;-67
2021/06/15 07:51:36;;;;;;;5.23;4.73;;;26.10;1.00;;;;;;5090327;28;20186;-66
2021/06/15 07:54:01;;;;;;;6.30;4.43;;;26.40;1.00;;;;;;5090464;28;20464;-68
2021/06/15 07:56:27;;;;;;;9.87;5.10;;;26.70;1.00;;;;;;5090370;28;20454;-66
2021/06/15 07:58:52;;;;;;;9.63;4.27;;;26.90;1.00;;;;;;5090449;28;20187;-67
2021/06/15 08:01:18;;;;;;;5.40;4.70;;;26.90;1.00;;;;;;5075639;28;20198;-67
2021/06/15 08:03:44;;;;;;;5.40;3.57;;;26.80;1.00;;;;;;5071578;28;20640;-66
2021/06/15 08:06:09;;;;;;;8.03;4.63;;;27.00;1.00;;;;;;5090652;28;20235;-68
2021/06/15 08:08:35;;;;;;;7.57;4.40;;;27.10;1.00;;;;;;5090293;28;20632;-68
2021/06/15 08:11:02;;;;;;;8.33;5.00;;;26.60;1.00;;;;;;5090703;28;20189;-66
2021/06/15 08:13:29;;;;;;;8.37;5.20;;;26.70;1.00;;;;;;5090034;28;20190;-69
2021/06/15 08:15:57;;;;;;;7.90;4.40;;;26.70;1.00;;;;;;5088048;28;20418;-68
2021/06/15 08:18:24;;;;;;;6.40;4.40;;;26.50;1.00;;;;;;5082476;28;20437;-68
2021/06/15 08:20:51;;;;;;;5.77;4.70;;;26.70;1.00;;;;;;5069786;28;20495;-67
2021/06/15 08:23:17;;;;;;;8.17;4.17;;;27.00;1.00;;;;;;5070119;28;20469;-67
2021/06/15 08:25:46;;;;;;;6.53;4.60;;;27.00;1.00;;;;;;5069810;28;21176;-67
2021/06/15 08:28:12;;;;;;;6.23;3.97;;;27.50;1.00;;;;;;5070069;28;20466;-66
2021/06/15 08:30:38;;;;;;;5.07;3.93;;;27.80;1.00;;;;;;5070498;28;20416;-68
2021/06/15 08:33:04;;;;;;;7.30;3.97;;;27.90;1.00;;;;;;5078388;28;20436;-68
2021/06/15 08:35:30;;;;;;;5.53;4.70;;;28.10;1.00;;;;;;5089015;28;20797;-68
2021/06/15 08:37:56;;;;;;;5.93;4.03;;;28.10;1.00;;;;;;5089880;28;20939;-69
2021/06/15 08:40:22;;;;;;;4.40;3.33;;;28.40;1.00;;;;;;5085957;28;20722;-69
2021/06/15 08:42:48;;;;;;;5.40;3.70;;;28.80;1.00;;;;;;5075725;28;20183;-69
2021/06/15 08:45:15;;;;;;;5.00;4.03;;;29.10;1.00;;;;;;5086397;28;20447;-68
2021/06/15 08:47:43;;;;;;;5.87;3.47;;;28.90;1.00;;;;;;5093823;28;20183;-68
2021/06/15 08:50:11;;;;;;;4.17;3.47;;;28.70;1.00;;;;;;5093579;28;20407;-68
2021/06/15 08:52:37;;;;;;;4.93;3.40;;;28.70;1.00;;;;;;5092313;28;20519;-67
2021/06/15 08:55:04;;;;;;;7.97;3.60;;;28.70;1.00;;;;;;5093350;28;20612;-68
2021/06/15 08:57:31;;;;;;;4.87;3.30;;;28.50;1.00;;;;;;5093747;28;20878;-67
2021/06/15 09:00:00;;;;;;;4.20;3.80;;;28.80;1.00;;;;;;5092977;28;20464;-67
2021/06/15 09:02:26;;;;;;;3.40;3.10;;;28.70;1.00;;;;;;5093553;28;20446;-68
2021/06/15 09:04:52;;;;;;;4.13;3.70;;;28.80;1.00;;;;;;5092899;28;20922;-67
2021/06/15 09:07:18;;;;;;;4.63;3.20;;;29.20;1.00;;;;;;5093252;28;20186;-67
2021/06/15 09:09:49;;;;;;;4.53;3.73;;;29.10;1.00;;;;;;5093264;28;20187;-68
2021/06/15 09:12:17;;;;;;;4.17;3.67;;;29.00;1.00;;;;;;5093156;28;20959;-68
2021/06/15 09:14:56;;;;;;;3.80;3.30;;;28.60;1.00;;;;;;5086483;28;20811;-68
2021/06/15 09:17:28;;;;;;;5.70;3.90;;;28.70;1.00;;;;;;5091153;28;20440;-68
2021/06/15 09:20:07;;;;;;;8.60;4.70;;;29.10;1.00;;;;;;5075400;28;20446;-68
2021/06/15 09:22:34;;;;;;;10.17;4.50;;;29.40;1.00;;;;;;5073144;28;20514;-68
2021/06/15 09:25:02;;;;;;;5.57;4.07;;;29.40;1.00;;;;;;5072339;28;20433;-70
2021/06/15 09:27:32;;;;;;;4.90;3.83;;;29.20;1.00;;;;;;5072694;28;20481;-68
2021/06/15 09:30:00;;;;;;;4.20;3.77;;;29.10;1.00;;;;;;5072937;28;20420;-68
2021/06/15 09:32:35;;;;;;;4.03;3.63;;;29.10;1.00;;;;;;5072854;28;20796;-69
2021/06/15 09:35:04;;;;;;;4.97;4.03;;;28.90;1.00;;;;;;5086945;28;20558;-68
2021/06/15 09:37:35;;;;;;;3.93;3.57;;;29.00;1.00;;;;;;5079107;28;20957;-67
2021/06/15 09:40:11;;;;;;;4.60;4.20;;;29.00;1.00;;;;;;5072397;28;20583;-67
2021/06/15 09:43:04;;;;;;;4.87;4.00;;;29.10;1.00;;;;;;5072522;28;20447;-69
2021/06/15 09:45:33;;;;;;;5.73;3.70;;;29.30;1.00;;;;;;5064340;28;20453;-67
2021/06/15 09:48:28;;;;;;;5.37;3.80;;;29.30;1.00;;;;;;5085348;28;20467;-68
2021/06/15 09:51:03;;;;;;;5.10;3.83;;;29.20;1.00;;;;;;5092069;28;20415;-69
2021/06/15 09:53:36;;;;;;;3.80;3.50;;;28.80;1.00;;;;;;5092327;28;20483;-67
2021/06/15 09:56:07;;;;;;;4.40;3.57;;;29.20;1.00;;;;;;5083166;28;20434;-67
2021/06/15 09:58:49;;;;;;;5.03;4.13;;;29.70;1.00;;;;;;5071752;28;20803;-66
2021/06/15 10:01:34;;;;;;;5.83;4.00;;;29.80;1.00;;;;;;5071476;28;20461;-66
2021/06/15 10:04:17;;;;;;;5.87;4.10;;;30.10;1.00;;;;;;5071496;28;20425;-69
2021/06/15 10:06:48;;;;;;;4.90;3.80;;;30.50;1.00;;;;;;5070639;28;20825;-67
2021/06/15 10:09:31;;;;;;;12.93;4.30;;;30.00;1.00;;;;;;5089039;28;20931;-70
2021/06/15 10:12:00;;;;;;;7.33;3.90;;;29.80;1.00;;;;;;5067906;28;20441;-68
2021/06/15 10:14:28;;;;;;;5.27;4.73;;;30.00;1.00;;;;;;5070386;28;20477;-67
2021/06/15 10:16:55;;;;;;;5.33;4.17;;;29.50;1.00;;;;;;5071830;28;20465;-67
2021/06/15 10:19:21;;;;;;;6.73;4.10;;;29.30;1.00;;;;;;5071692;28;20421;-68
2021/06/15 10:21:47;;;;;;;5.73;4.67;;;29.30;1.00;;;;;;5070292;28;20449;-69
2021/06/15 10:24:14;;;;;;;5.30;3.67;;;28.90;1.00;;;;;;5071642;28;20515;-68
2021/06/15 10:26:41;;;;;;;5.10;4.07;;;28.90;1.00;;;;;;5091836;28;20231;-67
2021/06/15 10:29:12;;;;;;;4.93;4.10;;;29.20;1.00;;;;;;5087606;28;20464;-68
2021/06/15 10:31:40;;;;;;;5.87;4.03;;;29.30;1.00;;;;;;5082361;28;20949;-68
2021/06/15 10:34:05;;;;;;;9.67;4.10;;;29.60;1.00;;;;;;5091541;28;20464;-68
2021/06/15 10:36:46;;;;;;;4.10;3.70;;;29.80;1.00;;;;;;5082716;28;20444;-68
2021/06/15 10:39:41;;;;;;;4.97;3.73;;;29.60;1.00;;;;;;5071475;28;20633;-67
2021/06/15 10:42:12;;;;;;;4.67;3.57;;;29.70;1.00;;;;;;5071662;28;20505;-67
2021/06/15 10:44:37;;;;;;;4.53;3.97;;;29.90;1.00;;;;;;5071441;28;20728;-69
2021/06/15 10:47:13;;;;;;;5.07;3.83;;;30.00;1.00;;;;;;5071253;28;20491;-68
2021/06/15 10:49:59;;;;;;;6.17;3.80;;;29.90;1.00;;;;;;5071013;28;20274;-68
2021/06/15 10:52:26;;;;;;;4.23;3.83;;;29.50;1.00;;;;;;5069000;28;20969;-69
2021/06/15 10:54:52;;;;;;;4.10;3.70;;;29.30;1.00;;;;;;5070933;28;20572;-68
2021/06/15 10:57:24;;;;;;;4.33;3.93;;;29.30;1.00;;;;;;5070622;28;20517;-67
2021/06/15 11:00:12;;;;;;;4.30;3.27;;;29.10;1.00;;;;;;5070799;28;20179;-68
2021/06/15 11:02:39;;;;;;;4.30;3.90;;;29.50;1.00;;;;;;5079636;28;20453;-71
2021/06/15 11:05:37;;;;;;;5.10;3.63;;;29.70;1.00;;;;;;5089316;28;20855;-68
2021/06/15 11:08:22;;;;;;;3.90;3.50;;;29.70;1.00;;;;;;5091043;28;20439;-68
2021/06/15 11:10:57;;;;;;;3.90;3.43;;;29.70;1.00;;;;;;5090936;28;20504;-67
2021/06/15 11:13:38;;;;;;;4.47;4.07;;;29.90;1.00;;;;;;5090386;28;20444;-69
2021/06/15 11:16:04;;;;;;;4.73;4.07;;;30.10;1.00;;;;;;5090447;28;20924;-68
2021/06/15 11:18:30;;;;;;;4.73;3.50;;;30.40;1.00;;;;;;5074762;28;20415;-71
2021/06/15 11:20:56;;;;;;;4.73;3.70;;;30.70;1.00;;;;;;5070653;28;20536;-69
2021/06/15 11:23:21;;;;;;;4.07;3.60;;;30.80;1.00;;;;;;5069372;28;20191;-69
2021/06/15 11:25:59;;;;;;;4.07;3.50;;;30.90;1.00;;;;;;5070371;28;20437;-68
2021/06/15 11:28:43;;;;;;;6.30;4.13;;;30.90;1.00;;;;;;5070479;28;20223;-69
2021/06/15 11:31:17;;;;;;;4.57;4.17;;;30.40;1.00;;;;;;5070360;28;20437;-68
2021/06/15 11:34:02;;;;;;;3.97;3.60;;;30.40;1.00;;;;;;5070565;28;20431;-69
2021/06/15 11:36:38;;;;;;;4.80;3.77;;;30.40;1.00;;;;;;5070074;28;20480;-69
2021/06/15 11:39:22;;;;;;;6.63;3.70;;;31.00;1.00;;;;;;5070368;28;20396;-69
2021/06/15 11:42:19;;;;;;;3.67;3.37;;;30.90;1.00;;;;;;5079628;28;20433;-68
2021/06/15 11:44:59;;;;;;;5.17;3.97;;;31.00;1.00;;;;;;5090445;28;20522;-68
2021/06/15 11:47:24;;;;;;;5.07;3.73;;;31.20;1.00;;;;;;5088675;28;20790;-68
2021/06/15 11:50:10;;;;;;;4.13;3.83;;;31.00;1.00;;;;;;5077427;28;20537;-68
2021/06/15 11:52:38;;;;;;;4.27;3.60;;;30.70;1.00;;;;;;5072953;28;20200;-68
2021/06/15 11:55:06;;;;;;;5.33;3.93;;;30.60;1.00;;;;;;5083311;28;20492;-69
2021/06/15 11:57:32;;;;;;;3.90;3.27;;;30.70;1.00;;;;;;5070258;28;20458;-68
2021/06/15 11:59:58;;;;;;;4.20;3.80;;;30.60;1.00;;;;;;5070366;28;20882;-69
2021/06/15 12:02:24;;;;;;;5.43;3.97;;;30.40;1.00;;;;;;5079881;28;20210;-68
2021/06/15 12:05:22;;;;;;;4.40;4.10;;;30.10;1.00;;;;;;5090349;28;20206;-68
2021/06/15 12:07:56;;;;;;;4.60;3.90;;;30.10;1.00;;;;;;5066862;28;20717;-69
2021/06/15 12:10:24;;;;;;;3.87;3.57;;;30.60;1.00;;;;;;5073395;28;20976;-69
2021/06/15 12:12:53;;;;;;;4.13;3.73;;;30.90;1.00;;;;;;5071583;28;20438;-68
2021/06/15 12:15:43;;;;;;;4.97;4.43;;;31.00;1.00;;;;;;5074455;28;20628;-70
2021/06/15 12:18:15;;;;;;;4.00;3.60;;;31.20;1.00;;;;;;5066328;28;20910;-69
2021/06/15 12:20:42;;;;;;;3.50;3.20;;;31.40;1.00;;;;;;5074758;28;20551;-68
2021/06/15 12:23:35;;;;;;;4.37;3.87;;;31.20;1.00;;;;;;5075316;28;20446;-69
2021/06/15 12:26:36;;;;;;;5.10;4.60;;;30.70;1.00;;;;;;5074698;28;20448;-70
2021/06/15 12:29:05;;;;;;;5.27;3.93;;;30.30;1.00;;;;;;5065947;28;20465;-70
2021/06/15 12:31:35;;;;;;;4.10;3.70;;;30.50;1.00;;;;;;5073783;28;20453;-69
2021/06/15 12:34:07;;;;;;;4.67;4.27;;;30.60;1.00;;;;;;5073828;28;20478;-70
2021/06/15 12:36:46;;;;;;;4.00;3.70;;;30.90;1.00;;;;;;5073933;28;20477;-69
2021/06/15 12:39:14;;;;;;;4.00;3.30;;;31.30;1.00;;;;;;5073415;28;20441;-70
2021/06/15 12:42:02;;;;;;;4.30;3.90;;;31.70;1.00;;;;;;5072083;28;20494;-70
2021/06/15 12:44:36;;;;;;;4.67;4.13;;;31.60;1.00;;;;;;5069378;28;20453;-69
2021/06/15 12:47:05;;;;;;;4.20;3.90;;;31.40;1.00;;;;;;5073623;28;20914;-69
2021/06/15 12:49:31;;;;;;;3.83;3.50;;;31.50;1.00;;;;;;5073378;28;20787;-70
2021/06/15 12:52:06;;;;;;;4.13;3.73;;;31.30;1.00;;;;;;5091716;28;20473;-69
2021/06/15 12:54:39;;;;;;;5.60;3.90;;;31.20;1.00;;;;;;5093484;28;20459;-70
2021/06/15 12:57:07;;;;;;;4.30;3.90;;;31.30;1.00;;;;;;5093409;28;20447;-69
2021/06/15 12:59:39;;;;;;;4.77;3.50;;;31.40;1.00;;;;;;5093764;28;20428;-70
2021/06/15 13:02:15;;;;;;;4.10;3.70;;;31.50;1.00;;;;;;5093412;28;20498;-69
2021/06/15 13:04:47;;;;;;;3.90;3.60;;;31.20;1.00;;;;;;5093366;28;20474;-69
2021/06/15 13:07:13;;;;;;;5.53;4.47;;;31.10;1.00;;;;;;5083286;28;20437;-69
2021/06/15 13:09:39;;;;;;;5.20;3.77;;;30.90;1.00;;;;;;5073608;28;20506;-69
2021/06/15 13:12:07;;;;;;;5.63;3.77;;;31.20;1.00;;;;;;5072705;28;20452;-69
2021/06/15 13:14:37;;;;;;;4.40;4.00;;;31.10;1.00;;;;;;5072737;28;20284;-69